Airfield :
LOGIN :

Register | Disclaimer

   EN    FR    IT 

 










Legend :    VFR   Marginal VFR   IFR   Intensive IFR   Very Intensive IFR
Visi :
Ceiling :
>= 8 km
>= 3000ft
5 to 8 km
1000 to 3000 ft
1500m to 5 km
500 to 1000 ft
800 to 1500m
200 to 500 ft
< 800m
< 200 ft
Symbols :   Thunderstorms  Fog  Heavy snow  Heavy precipitations  Wind > 20 kt
SIGMETs :     Misc.  Thunderstorms  Icing  Turbulence  Mountain Waves  Volcanic Ashes







- Airport Elevation : 1367 ft
- IATA code : FDH


EDNY - Friedrichshafen

CURRENT METAR :
  • 171350Z 04006KT 340V060 CAVOK 22/14 Q1018

EXPIRED METARs :
  • 171320Z 19008KT 160V230 CAVOK 23/13 Q1018
  • 171250Z 19007KT CAVOK 23/14 Q1018
  • 171220Z 20007KT 170V230 CAVOK 23/13 Q1019
  • 171150Z 21005KT CAVOK 22/14 Q1019
  • 171120Z 23005KT CAVOK 22/14 Q1019

TAF TAF EDNY
Valid from the 17 at 12:00 until the 18 at 12:00 UTC


171100Z 1712/1812 25005KT 9999 FEW045
BECMG 1715/1717 04005KT
BECMG 1804/1806 03010KT
No reported NOTAMs for that airfield.



MET'MAP, your aeronautical weather chart ! - Copyright ORBIFLY December 2007 - Disclaimer

ORBIFLY MET'MAP TEAM :

Programming & Development : Alexandra Zaïnal
Concept & Development : Baudouin d'Aumeries
Co-Development & Prog : Marc-Olivier Méhu
Technical & hardware support : Manuel Goepfert

Contact : metmap@orbifly.com




SOURCES & CREDITS :

   NOAA